Time;durP1;ratioP1;P1;durP2;ratioP2;P2;SDS_P1;SDS_P2;PMS_P1;PMS_P2;Temp;Humidity;BMP_temperature;BMP_pressure;BME280_temperature;BME280_humidity;BME280_pressure;Samples;Min_cycle;Max_cycle;Signal;HPM_P1;HPM_P2
2022/04/18 00:00:22;;;;;;;3.12;1.90;;;;;;;10.83;53.16;101313.91;1680264;85;21043;-65
2022/04/18 00:02:49;;;;;;;1.95;1.75;;;;;;;10.82;53.12;101309.56;1680088;84;21098;-65
2022/04/18 00:05:15;;;;;;;1.87;1.72;;;;;;;10.81;53.27;101315.67;1696756;84;21037;-65
2022/04/18 00:07:42;;;;;;;1.95;1.62;;;;;;;10.80;53.25;101308.73;1697653;84;21044;-65
2022/04/18 00:10:11;;;;;;;1.67;1.57;;;;;;;10.80;53.30;101297.48;1697141;84;21051;-66
2022/04/18 00:12:39;;;;;;;2.08;1.90;;;;;;;10.77;53.09;101282.76;1697764;84;21037;-65
2022/04/18 00:15:08;;;;;;;2.22;2.02;;;;;;;10.77;53.26;101282.76;1697495;84;21029;-66
2022/04/18 00:17:34;;;;;;;1.95;1.85;;;;;;;10.76;53.56;101281.02;1697895;84;21498;-65
2022/04/18 00:20:05;;;;;;;1.65;1.55;;;;;;;10.77;53.50;101281.89;1697493;84;21018;-66
2022/04/18 00:22:33;;;;;;;2.12;1.92;;;;;;;10.74;53.22;101271.07;1697819;84;21560;-65
2022/04/18 00:25:00;;;;;;;2.37;2.17;;;;;;;10.73;53.39;101268.06;1697494;84;21038;-65
2022/04/18 00:27:28;;;;;;;2.33;2.12;;;;;;;10.72;53.34;101270.23;1697708;84;21065;-66
2022/04/18 00:29:58;;;;;;;2.40;2.20;;;;;;;10.70;53.33;101253.78;1664209;86;21029;-66
2022/04/18 00:32:25;;;;;;;2.10;1.90;;;;;;;10.69;53.48;101250.77;1697889;84;21556;-67
2022/04/18 00:34:55;;;;;;;2.15;1.95;;;;;;;10.68;53.70;101249.03;1697687;84;21048;-66
2022/04/18 00:37:21;;;;;;;2.02;1.92;;;;;;;10.67;53.69;101242.12;1697665;84;20990;-66
2022/04/18 00:39:49;;;;;;;2.30;2.10;;;;;;;10.65;53.68;101228.28;1664222;86;21055;-67
2022/04/18 00:42:17;;;;;;;2.25;2.02;;;;;;;10.62;54.01;101234.38;1662844;86;21064;-67
2022/04/18 00:44:44;;;;;;;2.02;1.90;;;;;;;10.61;54.12;101235.25;1664193;86;21074;-67
2022/04/18 00:47:11;;;;;;;2.20;2.00;;;;;;;10.63;54.11;101240.45;1697624;84;21072;-67
2022/04/18 00:49:38;;;;;;;2.58;2.37;;;;;;;10.64;54.27;101235.66;1697782;84;21526;-67
2022/04/18 00:52:08;;;;;;;2.33;2.12;;;;;;;10.65;54.26;101234.78;1697744;84;21502;-66
2022/04/18 00:54:34;;;;;;;2.52;2.33;;;;;;;10.65;54.52;101233.48;1697722;84;21537;-67
2022/04/18 00:57:03;;;;;;;2.30;2.10;;;;;;;10.67;54.52;101239.53;1664172;86;21012;-66
2022/04/18 00:59:33;;;;;;;2.55;2.17;;;;;;;10.67;54.79;101233.45;1663235;86;21055;-66
2022/04/18 01:02:00;;;;;;;2.60;2.40;;;;;;;10.69;54.90;101240.36;1697856;84;21029;-66
2022/04/18 01:04:28;;;;;;;2.10;1.90;;;;;;;10.71;54.92;101237.30;1688982;84;21047;-66
2022/04/18 01:06:56;;;;;;;2.50;2.30;;;;;;;10.71;54.77;101232.09;1680177;85;21544;-65
2022/04/18 01:09:23;;;;;;;2.52;2.33;;;;;;;10.71;54.60;101228.19;1680367;84;21058;-66
2022/04/18 01:11:50;;;;;;;2.40;2.17;;;;;;;10.71;54.57;101234.69;1679921;85;21486;-66
2022/04/18 01:14:27;;;;;;;2.65;2.45;;;;;;;10.68;54.60;101238.62;1674141;85;21048;-66
2022/04/18 01:17:05;;;;;;;2.50;2.30;;;;;;;10.66;54.82;101239.09;1678391;85;21081;-65
2022/04/18 01:19:36;;;;;;;3.02;2.70;;;;;;;10.63;54.64;101243.05;1583503;90;21071;-65
2022/04/18 01:22:04;;;;;;;2.77;2.58;;;;;;;10.62;54.82;101251.73;1584226;90;21043;-68
2022/04/18 01:30:13;;;;;;;2.80;2.60;;;;;;;10.60;55.18;101233.98;1555700;92;21458;-67
2022/04/18 01:32:40;;;;;;;3.05;2.77;;;;;;;10.59;55.59;101232.27;1555606;92;21585;-67
2022/04/18 01:35:07;;;;;;;6.42;2.77;;;;;;;10.59;55.69;101226.60;1555763;92;21100;-65
2022/04/18 01:37:36;;;;;;;2.62;2.42;;;;;;;10.58;55.83;101222.30;1555509;92;21640;-67
2022/04/18 01:40:06;;;;;;;3.17;2.90;;;;;;;10.59;55.91;101222.70;1555760;92;21679;-67
2022/04/18 01:42:33;;;;;;;2.98;2.30;;;;;;;10.59;56.23;101221.86;1555634;92;21560;-66
2022/04/18 01:45:00;;;;;;;2.95;2.50;;;;;;;10.59;56.38;101221.86;1555747;92;21064;-66
2022/04/18 01:47:28;;;;;;;2.95;2.65;;;;;;;10.61;56.45;101216.20;1555661;92;21096;-66
2022/04/18 01:49:54;;;;;;;2.65;2.45;;;;;;;10.62;56.58;101216.16;1555859;92;21630;-66
2022/04/18 01:52:22;;;;;;;2.90;2.60;;;;;;;10.63;56.77;101206.16;1555418;92;21085;-66
2022/04/18 01:54:50;;;;;;;2.87;2.50;;;;;;;10.64;56.80;101207.89;1553360;92;21585;-66
2022/04/18 01:57:19;;;;;;;3.30;2.62;;;;;;;10.67;56.82;101208.30;1555845;92;21596;-66
2022/04/18 01:59:47;;;;;;;2.75;2.55;;;;;;;10.65;56.81;101194.45;1555630;92;21069;-66
2022/04/18 02:02:14;;;;;;;2.75;2.55;;;;;;;10.66;56.59;101198.75;1555432;92;21089;-66
2022/04/18 02:04:41;;;;;;;2.52;2.33;;;;;;;10.63;56.58;101202.25;1556462;92;21077;-66
2022/04/18 02:07:10;;;;;;;3.50;2.83;;;;;;;10.62;56.71;101204.88;1557235;92;21565;-66
2022/04/18 02:09:40;;;;;;;3.10;2.50;;;;;;;10.62;56.60;101210.09;1557307;91;21054;-66
2022/04/18 02:12:10;;;;;;;3.12;2.85;;;;;;;10.61;56.60;101214.42;1547290;92;21138;-66
2022/04/18 02:14:39;;;;;;;3.08;2.83;;;;;;;10.60;56.58;101209.25;1500253;96;21109;-66
2022/04/18 02:17:09;;;;;;;3.42;3.05;;;;;;;10.59;56.51;101204.95;1537545;91;21079;-67
2022/04/18 02:19:36;;;;;;;2.90;2.60;;;;;;;10.54;56.69;101202.84;1541835;91;21110;-66
2022/04/18 02:22:05;;;;;;;3.10;2.42;;;;;;;10.52;56.76;101194.20;1579670;90;21092;-66
2022/04/18 02:24:32;;;;;;;2.75;2.55;;;;;;;10.49;56.79;101200.30;1580775;90;21088;-66
2022/04/18 02:27:00;;;;;;;3.52;3.22;;;;;;;10.47;56.88;101195.98;1579719;90;21176;-66
2022/04/18 02:29:27;;;;;;;3.10;2.80;;;;;;;10.45;56.95;101199.05;1579930;90;21133;-66
2022/04/18 02:34:40;;;;;;;3.33;3.02;;;;;;;10.42;56.82;101192.61;1580851;90;21600;-66
2022/04/18 02:37:08;;;;;;;3.00;2.70;;;;;;;10.40;56.77;101194.38;1582324;90;21085;-66
2022/04/18 02:39:37;;;;;;;3.10;2.80;;;;;;;10.38;56.47;101192.23;1588527;90;21069;-66
2022/04/18 02:42:05;;;;;;;3.85;2.95;;;;;;;10.35;56.08;101200.06;1579966;90;21591;-66
2022/04/18 02:44:32;;;;;;;3.47;2.90;;;;;;;10.34;56.27;101191.86;1579883;90;21770;-66
2022/04/18 02:47:00;;;;;;;2.98;2.67;;;;;;;10.32;55.97;101206.63;1581581;90;21099;-66
2022/04/18 02:49:27;;;;;;;2.75;2.50;;;;;;;10.31;55.88;101206.20;1581185;90;21152;-66
2022/04/18 02:51:54;;;;;;;3.17;2.52;;;;;;;10.31;55.73;101207.06;1580462;90;21645;-66
2022/04/18 02:54:22;;;;;;;2.33;2.12;;;;;;;10.31;55.42;101200.99;1579977;90;21093;-66
2022/04/18 02:56:49;;;;;;;2.52;2.30;;;;;;;10.31;55.23;101201.86;1579726;90;21553;-66
2022/04/18 02:59:16;;;;;;;2.52;2.30;;;;;;;10.32;55.00;101205.33;1581413;90;21068;-66
2022/04/18 03:01:45;;;;;;;2.47;2.27;;;;;;;10.31;54.93;101206.20;1582363;90;21108;-66
2022/04/18 03:04:12;;;;;;;2.20;2.00;;;;;;;10.29;54.68;101199.72;1585307;90;21102;-65
2022/04/18 03:06:39;;;;;;;4.10;2.50;;;;;;;10.29;54.90;101194.95;1567659;91;21117;-66
2022/04/18 03:09:07;;;;;;;2.00;1.90;;;;;;;10.28;54.80;101195.84;1560178;91;21621;-65
2022/04/18 03:11:34;;;;;;;2.60;2.20;;;;;;;10.27;54.51;101189.78;1629641;84;21017;-66
2022/04/18 03:14:03;;;;;;;2.20;2.00;;;;;;;10.25;54.38;101186.34;1687002;84;21498;-66
2022/04/18 03:16:37;;;;;;;2.65;1.98;;;;;;;10.24;54.40;101188.97;1699387;84;21085;-66
2022/04/18 03:19:05;;;;;;;2.20;2.00;;;;;;;10.23;54.48;101187.23;1699347;84;21045;-66
2022/04/18 03:21:33;;;;;;;2.00;1.82;;;;;;;10.22;54.46;101193.33;1663276;86;21028;-66
2022/04/18 03:24:03;;;;;;;2.27;2.08;;;;;;;10.21;54.34;101197.66;1663310;86;21052;-66
2022/04/18 03:26:48;;;;;;;2.02;1.90;;;;;;;10.19;54.04;101195.95;1655332;86;21040;-66
2022/04/18 03:29:21;;;;;;;2.70;2.15;;;;;;;10.16;54.06;101198.16;1663525;86;21548;-66
2022/04/18 03:31:49;;;;;;;1.95;1.85;;;;;;;10.16;54.15;101210.31;1663363;86;21076;-66
2022/04/18 03:34:18;;;;;;;2.08;1.98;;;;;;;10.14;54.13;101204.28;1660424;86;21115;-66
2022/04/18 03:42:19;;;;;;;2.20;2.00;;;;;;;10.08;53.79;101189.56;1627922;87;21031;-66
2022/04/18 03:44:47;;;;;;;5.60;2.45;;;;;;;10.05;53.74;101190.91;1635219;88;21553;-65
2022/04/18 03:47:15;;;;;;;2.30;2.10;;;;;;;10.02;53.74;101181.84;1644516;87;21096;-66
2022/04/18 03:49:42;;;;;;;2.27;1.82;;;;;;;10.01;53.55;101187.06;1649307;87;21035;-66
2022/04/18 03:52:10;;;;;;;2.30;2.10;;;;;;;10.00;53.71;101180.13;1649004;87;21074;-66
2022/04/18 03:57:07;;;;;;;2.20;2.00;;;;;;;9.99;53.97;101186.23;1606928;89;21038;-66
2022/04/18 03:59:42;;;;;;;2.47;2.27;;;;;;;9.99;53.85;101184.92;1574366;91;21099;-65
2022/04/18 04:02:09;;;;;;;2.30;2.10;;;;;;;9.97;53.51;101176.29;1609534;89;21119;-66
2022/04/18 04:04:41;;;;;;;2.10;1.90;;;;;;;9.94;53.38;101182.81;1564565;90;21110;-66
2022/04/18 04:07:08;;;;;;;2.47;2.27;;;;;;;9.93;53.39;101185.00;1618402;89;21789;-65
2022/04/18 04:09:36;;;;;;;2.27;2.08;;;;;;;9.92;53.69;101184.56;1587762;90;21083;-65
2022/04/18 04:12:06;;;;;;;2.45;2.25;;;;;;;9.94;53.97;101184.11;1587736;90;21087;-65
2022/04/18 04:14:34;;;;;;;2.17;1.98;;;;;;;9.95;54.04;101176.75;1583547;90;21063;-66
2022/04/18 04:17:04;;;;;;;2.58;2.37;;;;;;;9.96;53.64;101174.12;1617910;89;21131;-65
2022/04/18 04:19:33;;;;;;;2.52;2.27;;;;;;;9.96;53.59;101169.35;1618370;89;21060;-65
2022/04/18 04:22:02;;;;;;;3.70;2.37;;;;;;;9.96;53.93;101169.35;1587582;89;21122;-66
2022/04/18 04:24:31;;;;;;;2.15;2.02;;;;;;;9.97;53.77;101168.48;1618122;89;21096;-66
2022/04/18 04:27:00;;;;;;;2.42;2.22;;;;;;;9.97;53.52;101168.48;1587623;90;21114;-66
2022/04/18 04:29:27;;;;;;;2.60;2.40;;;;;;;9.95;53.62;101163.75;1588002;90;21162;-66
2022/04/18 04:31:57;;;;;;;3.40;2.40;;;;;;;9.95;53.49;101163.75;1574348;91;21095;-66
2022/04/18 04:34:26;;;;;;;2.52;2.33;;;;;;;9.93;53.86;101153.81;1574531;91;21072;-66
2022/04/18 04:37:06;;;;;;;2.50;2.30;;;;;;;9.90;53.77;101156.00;1536840;93;21103;-66
2022/04/18 04:39:33;;;;;;;2.55;2.25;;;;;;;9.87;53.47;101154.72;1524311;94;21002;-66
2022/04/18 04:41:59;;;;;;;2.77;2.58;;;;;;;9.83;53.66;101159.11;1524164;94;21062;-66
2022/04/18 04:44:28;;;;;;;2.60;2.40;;;;;;;9.82;53.43;101158.70;1525514;94;21039;-67
2022/04/18 04:46:59;;;;;;;2.60;2.40;;;;;;;9.80;52.99;101161.77;1530133;92;21070;-67
2022/04/18 04:49:27;;;;;;;2.22;2.02;;;;;;;9.77;53.43;101163.52;1558812;92;21081;-66
2022/04/18 04:52:12;;;;;;;2.37;2.17;;;;;;;9.76;53.62;101156.61;1556555;92;21149;-67
2022/04/18 04:54:39;;;;;;;2.35;2.15;;;;;;;9.75;53.34;101156.18;1558810;92;21097;-67
2022/04/18 04:57:07;;;;;;;2.42;2.20;;;;;;;9.75;53.43;101153.58;1564544;92;21092;-67
2022/04/18 04:59:54;;;;;;;2.27;2.08;;;;;;;9.73;53.10;101158.80;1558498;92;21126;-66
2022/04/18 05:02:42;;;;;;;2.55;2.33;;;;;;;9.73;53.31;101156.20;1552805;92;21126;-66
2022/04/18 05:05:09;;;;;;;2.50;2.30;;;;;;;9.73;53.76;101157.50;1630473;87;21028;-67
2022/04/18 05:07:36;;;;;;;2.60;2.40;;;;;;;9.71;53.30;101154.06;1616433;88;21038;-66
2022/04/18 05:10:08;;;;;;;2.25;2.05;;;;;;;9.71;53.59;101155.36;1648550;86;21030;-66
2022/04/18 05:12:35;;;;;;;2.45;2.25;;;;;;;9.71;53.81;101159.27;1640904;87;21082;-66
2022/04/18 05:15:06;;;;;;;2.85;2.27;;;;;;;9.75;54.09;101149.68;1640832;87;21094;-67
2022/04/18 05:17:34;;;;;;;2.65;2.45;;;;;;;9.76;53.89;101146.22;1637641;87;21527;-66
2022/04/18 05:20:06;;;;;;;2.30;2.10;;;;;;;9.76;53.43;101144.49;1645034;86;21046;-66
2022/04/18 05:22:35;;;;;;;2.30;2.10;;;;;;;9.78;53.77;101155.73;1640730;87;21055;-66
2022/04/18 05:25:04;;;;;;;2.80;2.50;;;;;;;9.80;54.06;101151.37;1619972;88;21553;-67
2022/04/18 05:27:32;;;;;;;2.42;2.22;;;;;;;9.82;53.84;101149.61;1594030;90;21047;-67
2022/04/18 05:30:00;;;;;;;2.67;2.45;;;;;;;9.85;53.52;101145.66;1610330;89;21047;-66
2022/04/18 05:32:27;;;;;;;2.35;2.15;;;;;;;9.87;53.62;101147.39;1604870;88;21561;-67
2022/04/18 05:34:55;;;;;;;2.30;2.10;;;;;;;9.89;53.92;101143.03;1637269;87;21571;-66
2022/04/18 05:37:26;;;;;;;2.60;2.40;;;;;;;9.92;53.56;101145.14;1620911;88;21048;-67
2022/04/18 05:39:57;;;;;;;;;;;;;;;9.97;53.61;101145.09;1640981;87;21510;-66
2022/04/18 05:42:24;;;;;;;2.30;2.10;;;;;;;10.01;53.72;101140.27;1641119;87;20098;-66
2022/04/18 05:44:52;;;;;;;2.62;2.42;;;;;;;10.03;52.62;101137.21;1625807;88;21512;-66
2022/04/18 05:47:19;;;;;;;2.95;2.67;;;;;;;10.05;53.08;101138.05;1640526;87;21048;-66
2022/04/18 05:49:48;;;;;;;3.05;2.70;;;;;;;10.05;53.05;101140.64;1640693;87;21061;-67
2022/04/18 05:52:15;;;;;;;3.30;2.42;;;;;;;10.06;52.70;101129.34;1625921;88;21051;-67
2022/04/18 05:54:43;;;;;;;2.72;2.33;;;;;;;10.06;52.87;101134.55;1640506;87;21049;-67
2022/04/18 05:57:11;;;;;;;3.02;2.72;;;;;;;10.05;52.83;101143.25;1640355;87;21548;-67
2022/04/18 05:59:40;;;;;;;2.90;2.70;;;;;;;10.05;52.95;101136.31;1637191;87;21063;-65
2022/04/18 06:02:15;;;;;;;3.15;2.77;;;;;;;10.10;52.84;101128.45;1640433;87;21528;-66
2022/04/18 06:04:43;;;;;;;2.70;2.50;;;;;;;10.15;52.66;101137.07;1588583;88;21721;-66
2022/04/18 06:07:22;;;;;;;3.02;2.50;;;;;;;10.19;52.29;101136.14;1596782;89;21097;-66
2022/04/18 06:10:03;;;;;;;2.80;2.60;;;;;;;10.22;52.09;101132.22;1594968;90;21078;-66
2022/04/18 06:12:32;;;;;;;3.45;2.98;;;;;;;10.25;52.32;101136.92;1557714;91;21104;-65
2022/04/18 06:15:00;;;;;;;2.77;2.50;;;;;;;10.32;51.93;101137.70;1601550;89;21060;-66
2022/04/18 06:17:30;;;;;;;3.20;2.90;;;;;;;10.35;51.68;101132.00;1600686;89;21056;-67
2022/04/18 06:20:01;;;;;;;3.12;2.87;;;;;;;10.40;51.24;101130.64;1603965;89;21056;-66
2022/04/18 06:22:28;;;;;;;3.30;3.00;;;;;;;10.45;51.84;101132.28;1603665;89;21056;-66
2022/04/18 06:24:56;;;;;;;3.33;3.02;;;;;;;10.52;51.72;101133.05;1635126;85;21614;-67
2022/04/18 06:27:26;;;;;;;3.20;2.80;;;;;;;10.56;51.81;101137.33;1650075;86;21083;-66
2022/04/18 06:29:53;;;;;;;3.58;3.08;;;;;;;10.58;51.39;101141.63;1648520;86;21056;-67
2022/04/18 06:32:24;;;;;;;2.92;2.60;;;;;;;10.58;51.18;101143.36;1648477;86;21143;-66
2022/04/18 06:34:49;;;;;;;3.17;2.92;;;;;;;10.57;51.29;101140.36;1648590;86;21076;-66
2022/04/18 06:37:18;;;;;;;3.00;2.75;;;;;;;10.58;51.10;101135.13;1648652;86;21033;-67
2022/04/18 06:39:59;;;;;;;3.12;2.83;;;;;;;10.58;50.70;101140.76;1602820;89;21554;-67
2022/04/18 06:42:40;;;;;;;3.33;2.75;;;;;;;10.56;51.20;101130.39;1603108;89;21112;-65
2022/04/18 06:45:15;;;;;;;2.67;2.47;;;;;;;10.56;51.08;101132.12;1603003;89;21546;-65
2022/04/18 06:47:42;;;;;;;3.27;2.55;;;;;;;10.58;50.92;101132.95;1603363;89;21077;-66
2022/04/18 06:50:12;;;;;;;2.60;2.40;;;;;;;10.57;50.29;101111.73;1601189;89;21077;-65
2022/04/18 06:52:59;;;;;;;3.30;3.00;;;;;;;10.56;50.79;101112.60;1603762;89;21102;-66
2022/04/18 06:58:34;;;;;;;2.87;2.67;;;;;;;10.56;51.04;101124.31;1541759;92;21086;-66
2022/04/18 07:01:02;;;;;;;2.80;2.60;;;;;;;10.55;50.83;101129.95;1520516;93;21560;-65
2022/04/18 07:03:29;;;;;;;2.80;2.60;;;;;;;10.53;51.06;101129.58;1529683;92;21156;-66
2022/04/18 07:05:58;;;;;;;4.55;3.95;;;;;;;10.49;50.48;101134.38;1565955;91;21646;-65
2022/04/18 07:08:25;;;;;;;4.62;4.22;;;;;;;10.47;50.40;101145.26;1557524;91;21099;-66
2022/04/18 07:10:53;;;;;;;3.70;3.40;;;;;;;10.45;49.97;101141.82;1583809;90;21541;-66
2022/04/18 07:13:21;;;;;;;2.77;2.58;;;;;;;10.47;49.68;101141.36;1570939;91;21042;-65
2022/04/18 07:15:50;;;;;;;2.52;2.33;;;;;;;10.49;49.85;101140.89;1584611;90;21545;-66
2022/04/18 07:18:18;;;;;;;3.15;2.70;;;;;;;10.55;49.85;101147.33;1564151;91;21062;-66
2022/04/18 07:20:47;;;;;;;3.58;2.47;;;;;;;10.59;49.63;101134.69;1558787;92;21032;-66
2022/04/18 07:23:17;;;;;;;2.47;2.27;;;;;;;10.60;48.97;101135.09;1585429;90;21599;-65
2022/04/18 07:25:45;;;;;;;2.40;2.20;;;;;;;10.59;48.97;101126.88;1568015;91;21590;-66
2022/04/18 07:28:15;;;;;;;2.80;2.37;;;;;;;10.62;49.61;101125.52;1585181;90;21187;-67
2022/04/18 07:30:44;;;;;;;3.22;2.00;;;;;;;10.67;49.59;101122.41;1609633;88;21094;-66
2022/04/18 07:33:14;;;;;;;1.98;1.87;;;;;;;10.71;48.45;101124.08;1639959;87;21114;-66
2022/04/18 07:35:40;;;;;;;2.33;2.12;;;;;;;10.73;48.00;101122.31;1722912;83;20996;-66
2022/04/18 07:40:55;;;;;;;2.60;1.87;;;;;;;10.76;47.87;101117.03;1710709;83;21073;-66
2022/04/18 07:43:23;;;;;;;2.37;2.17;;;;;;;10.79;47.91;101112.23;1697811;84;21030;-66
2022/04/18 07:45:50;;;;;;;2.45;2.20;;;;;;;10.82;47.96;101115.63;1697727;84;21107;-66
2022/04/18 07:48:17;;;;;;;1.92;1.82;;;;;;;10.86;47.19;101118.59;1693820;84;21021;-66
2022/04/18 07:53:32;;;;;;;7.90;2.62;;;;;;;10.99;47.53;101112.30;1689036;84;21508;-66
2022/04/18 07:55:59;;;;;;;2.05;1.87;;;;;;;11.09;47.75;101115.15;1697953;84;21085;-66
2022/04/18 07:58:27;;;;;;;2.25;2.05;;;;;;;11.18;47.03;101118.03;1690388;83;21089;-65
2022/04/18 08:00:54;;;;;;;2.10;1.90;;;;;;;11.24;46.53;101116.62;1697355;84;21045;-64
2022/04/18 08:03:22;;;;;;;1.60;1.50;;;;;;;11.25;46.49;101106.16;1696924;84;21109;-64
2022/04/18 08:05:57;;;;;;;2.35;1.90;;;;;;;11.30;46.70;101116.06;1715025;83;21034;-66
2022/04/18 08:08:26;;;;;;;2.10;1.95;;;;;;;11.36;46.47;101100.31;1687817;84;21010;-65
2022/04/18 08:10:53;;;;;;;2.83;1.98;;;;;;;11.41;45.43;101098.49;1695521;83;21133;-65
2022/04/18 08:13:20;;;;;;;1.90;1.80;;;;;;;11.43;45.92;101098.02;1689968;85;21529;-65
2022/04/18 08:16:01;;;;;;;1.90;1.40;;;;;;;11.50;46.60;101099.20;1709274;83;21028;-64
2022/04/18 08:18:31;;;;;;;2.08;1.87;;;;;;;11.55;45.28;101098.64;1688859;85;21066;-64
2022/04/18 08:20:58;;;;;;;1.95;1.75;;;;;;;11.59;45.54;101095.08;1721775;83;21068;-65
2022/04/18 08:23:25;;;;;;;8.28;6.55;;;;;;;11.68;45.74;101088.42;1687913;84;21086;-65
2022/04/18 08:26:07;;;;;;;4.08;3.67;;;;;;;11.77;45.61;101096.03;1577415;90;21138;-65
2022/04/18 08:28:36;;;;;;;9.53;6.75;;;;;;;11.84;44.63;101097.63;1603045;89;21150;-65
2022/04/18 08:31:02;;;;;;;6.42;5.55;;;;;;;11.87;44.54;101099.72;1606779;89;21065;-65
2022/04/18 08:33:37;;;;;;;5.12;4.37;;;;;;;11.94;44.65;101095.23;1595475;89;21074;-65
2022/04/18 08:36:05;;;;;;;5.33;4.37;;;;;;;12.03;44.88;101093.73;1579862;90;21108;-65
2022/04/18 08:38:32;;;;;;;7.15;2.42;;;;;;;12.11;44.65;101097.90;1582071;89;21144;-66
2022/04/18 08:41:04;;;;;;;1.32;1.22;;;;;;;12.19;44.13;101093.80;1508696;94;21132;-65
2022/04/18 08:43:31;;;;;;;1.40;1.30;;;;;;;12.26;44.17;101088.86;1525612;94;21117;-66
2022/04/18 08:45:58;;;;;;;1.25;1.15;;;;;;;12.33;43.12;101087.81;1525225;94;21121;-65
2022/04/18 08:53:59;;;;;;;1.60;1.50;;;;;;;12.53;43.43;101088.19;1516534;93;21083;-65
2022/04/18 08:56:28;;;;;;;1.35;1.22;;;;;;;12.59;42.02;101081.50;1522828;94;21593;-65
2022/04/18 08:58:55;;;;;;;1.55;1.17;;;;;;;12.59;41.71;101085.42;1519694;94;21630;-65
2022/04/18 09:01:22;;;;;;;1.20;1.10;;;;;;;12.58;41.70;101081.11;1533908;90;21047;-65
2022/04/18 09:03:49;;;;;;;1.77;1.00;;;;;;;12.61;41.58;101086.23;1595469;89;21207;-66
2022/04/18 09:06:19;;;;;;;1.22;1.12;;;;;;;12.63;41.20;101080.53;1593827;90;21069;-65
2022/04/18 09:08:52;;;;;;;1.07;0.98;;;;;;;12.66;41.01;101073.95;1522464;92;21132;-65
2022/04/18 09:11:31;;;;;;;1.75;1.10;;;;;;;12.68;40.83;101063.45;1534032;93;21035;-66
2022/04/18 09:14:10;;;;;;;1.25;0.80;;;;;;;12.70;40.76;101067.75;1540293;92;21596;-66
2022/04/18 09:16:39;;;;;;;1.35;1.20;;;;;;;12.74;40.94;101066.77;1539738;93;21131;-65
2022/04/18 09:19:12;;;;;;;1.45;1.35;;;;;;;12.76;40.21;101080.64;1580370;90;21064;-65
2022/04/18 09:21:58;;;;;;;1.95;1.75;;;;;;;12.75;40.38;101065.03;1586251;90;21490;-64
2022/04/18 09:24:35;;;;;;;2.05;1.17;;;;;;;12.72;39.50;101072.48;1585893;90;21066;-65
2022/04/18 09:27:27;;;;;;;10.98;6.45;;;;;;;12.67;39.57;101070.45;1585959;90;21064;-66
2022/04/18 09:30:07;;;;;;;7.20;4.83;;;;;;;12.64;39.83;101065.30;1582137;90;21037;-66
2022/04/18 09:32:41;;;;;;;2.20;1.80;;;;;;;12.65;40.21;101073.52;1585903;90;21093;-66
2022/04/18 09:35:25;;;;;;;1.27;1.10;;;;;;;12.66;40.50;101067.42;1513295;95;21122;-66
2022/04/18 09:37:54;;;;;;;3.42;1.57;;;;;;;12.69;40.09;101056.91;1513800;93;21142;-66
2022/04/18 09:40:23;;;;;;;1.70;1.55;;;;;;;12.73;40.40;101059.85;1511915;94;21125;-65
2022/04/18 09:42:53;;;;;;;1.12;1.02;;;;;;;12.76;40.01;101050.61;1513010;95;21091;-66
2022/04/18 09:45:22;;;;;;;1.27;1.10;;;;;;;12.79;39.29;101051.86;1510201;93;21140;-65
2022/04/18 09:47:58;;;;;;;1.55;1.00;;;;;;;12.81;38.99;101055.28;1496147;94;21661;-66
2022/04/18 09:53:24;;;;;;;1.70;1.27;;;;;;;12.89;38.76;101058.99;1458687;97;21640;-66
2022/04/18 09:55:54;;;;;;;3.33;2.92;;;;;;;12.95;38.85;101047.94;1480444;96;21581;-65
2022/04/18 09:58:21;;;;;;;2.35;2.15;;;;;;;13.03;39.23;101056.42;1480384;96;21177;-65
2022/04/18 10:00:49;;;;;;;2.60;2.40;;;;;;;13.09;38.63;101055.42;1480269;96;21641;-65
2022/04/18 10:03:18;;;;;;;1.55;1.10;;;;;;;13.12;37.50;101052.74;1473015;96;21720;-65
2022/04/18 10:05:47;;;;;;;2.60;1.77;;;;;;;13.16;37.26;101056.12;1493263;95;21108;-65
2022/04/18 10:08:15;;;;;;;2.00;1.75;;;;;;;13.21;38.04;101047.72;1504819;95;21140;-66
2022/04/18 10:10:42;;;;;;;1.15;1.00;;;;;;;13.27;37.10;101048.85;1513255;95;21598;-66
2022/04/18 10:13:10;;;;;;;0.57;0.57;;;;;;;13.30;36.20;101050.05;1513251;95;21062;-66
2022/04/18 10:15:39;;;;;;;1.05;0.95;;;;;;;13.32;36.11;101043.89;1514867;95;21148;-66
2022/04/18 10:18:10;;;;;;;0.65;0.65;;;;;;;13.37;36.60;101034.63;1513004;95;21093;-66
2022/04/18 10:21:09;;;;;;;3.52;2.42;;;;;;;13.45;36.33;101044.41;1513477;95;21590;-66
2022/04/18 10:23:55;;;;;;;1.67;1.35;;;;;;;13.52;36.56;101053.77;1512925;94;21097;-66
2022/04/18 10:27:04;;;;;;;1.25;1.15;;;;;;;13.60;35.45;101038.73;1504935;95;21107;-65
2022/04/18 10:29:33;;;;;;;2.02;1.77;;;;;;;13.63;35.61;101038.19;1504843;95;21199;-65
2022/04/18 10:32:03;;;;;;;2.33;1.75;;;;;;;13.64;34.80;101029.90;1560064;91;21026;-65
2022/04/18 10:34:33;;;;;;;3.50;1.98;;;;;;;13.65;35.54;101031.59;1568821;91;21078;-65
2022/04/18 10:37:03;;;;;;;1.70;1.60;;;;;;;13.68;34.83;101034.13;1567534;91;21105;-65
2022/04/18 10:39:35;;;;;;;1.12;1.02;;;;;;;13.68;34.67;101035.44;1567956;91;21115;-65
2022/04/18 10:42:22;;;;;;;3.12;1.37;;;;;;;13.72;33.13;101039.67;1505191;95;21052;-65
2022/04/18 10:45:14;;;;;;;2.42;1.55;;;;;;;13.69;33.76;101031.91;1501940;95;21072;-65
2022/04/18 10:48:08;;;;;;;3.00;1.25;;;;;;;13.68;34.78;101022.36;1521482;93;21031;-65
2022/04/18 10:50:48;;;;;;;2.45;1.60;;;;;;;13.69;34.98;101025.37;1594959;89;21080;-65
2022/04/18 10:53:37;;;;;;;1.67;1.17;;;;;;;13.75;34.58;101026.48;1608397;89;21117;-66
2022/04/18 10:56:08;;;;;;;3.20;1.17;;;;;;;13.80;33.98;101028.53;1606252;89;21037;-66
2022/04/18 10:58:35;;;;;;;2.10;1.37;;;;;;;13.82;33.61;101018.43;1582421;90;21061;-66
2022/04/18 11:01:08;;;;;;;2.35;1.20;;;;;;;13.82;34.15;101007.11;1581229;91;21049;-65
2022/04/18 11:03:43;;;;;;;1.42;1.10;;;;;;;13.79;35.64;101001.95;1609342;89;21029;-65
2022/04/18 11:06:24;;;;;;;1.02;0.93;;;;;;;13.75;34.79;100996.41;1600671;90;21083;-65
2022/04/18 11:09:07;;;;;;;1.67;0.85;;;;;;;13.72;34.90;101001.75;1601755;90;21033;-65
2022/04/18 11:12:01;;;;;;;1.20;0.90;;;;;;;13.70;35.68;101002.25;1600017;90;21115;-65
2022/04/18 11:14:31;;;;;;;1.10;0.90;;;;;;;13.74;36.00;101009.10;1601496;90;21647;-66
2022/04/18 11:17:01;;;;;;;0.93;0.93;;;;;;;13.75;34.01;101016.03;1596584;90;21101;-66
2022/04/18 11:19:30;;;;;;;1.35;0.95;;;;;;;13.74;34.37;101006.48;1601654;90;21611;-66
2022/04/18 11:22:05;;;;;;;1.27;0.93;;;;;;;13.79;35.09;101009.36;1601546;90;21056;-66
2022/04/18 11:24:49;;;;;;;0.80;0.80;;;;;;;13.84;33.93;100993.08;1601832;89;21051;-66
2022/04/18 11:27:17;;;;;;;1.47;0.90;;;;;;;13.86;34.01;100990.41;1601825;90;21112;-65
2022/04/18 11:29:48;;;;;;;1.32;0.70;;;;;;;13.94;34.72;100998.87;1601833;89;21064;-65
2022/04/18 11:32:17;;;;;;;1.80;1.20;;;;;;;13.98;33.77;100993.08;1526370;94;21171;-65
2022/04/18 11:34:50;;;;;;;0.78;0.70;;;;;;;13.99;34.42;100986.52;1526562;94;21106;-65
2022/04/18 11:37:25;;;;;;;1.57;0.90;;;;;;;13.97;33.61;100990.94;1522445;94;21082;-66
2022/04/18 11:39:57;;;;;;;1.72;0.90;;;;;;;13.94;33.86;100996.25;1579521;90;21040;-66
2022/04/18 11:42:30;;;;;;;1.60;1.10;;;;;;;13.90;33.87;100993.33;1523967;94;21072;-66
2022/04/18 11:44:58;;;;;;;;;;;;;;;13.87;34.29;100979.03;1512115;94;21050;-65
2022/04/18 11:47:38;;;;;;;0.93;0.82;;;;;;;13.85;34.74;100983.45;1518030;94;20439;-65
2022/04/18 11:50:07;;;;;;;0.80;0.80;;;;;;;13.83;34.39;100974.80;1526147;94;21095;-65
2022/04/18 11:52:37;;;;;;;1.45;0.70;;;;;;;13.84;33.95;100984.38;1523064;93;21085;-66
2022/04/18 11:55:19;;;;;;;1.27;0.80;;;;;;;13.85;34.57;100980.84;1395753;100;21159;-65
2022/04/18 11:57:48;;;;;;;0.80;0.80;;;;;;;13.86;33.17;100987.80;1425573;99;21141;-65
2022/04/18 12:08:19;;;;;;;0.80;0.80;;;;;;;13.70;32.51;100991.80;1413678;100;21134;-66
2022/04/18 12:10:46;;;;;;;1.12;1.00;;;;;;;13.68;33.42;101000.14;1393507;102;21175;-65
2022/04/18 12:13:14;;;;;;;0.80;0.80;;;;;;;13.65;34.38;101001.52;1415938;101;21126;-66
2022/04/18 12:15:43;;;;;;;0.70;0.65;;;;;;;13.64;34.10;101010.28;1415165;101;21598;-65
2022/04/18 12:18:19;;;;;;;1.82;0.90;;;;;;;13.64;34.17;100997.21;1414077;101;21794;-65
2022/04/18 12:20:50;;;;;;;0.68;0.62;;;;;;;13.65;34.57;101015.91;1412299;100;21090;-65
2022/04/18 12:23:20;;;;;;;1.42;0.90;;;;;;;13.66;35.18;101009.79;1435705;99;21105;-66